CYSN

St Catharines / Niagara District Airport

St Catharines, , Canada
METAR CYSN 241100Z 10011G17KT 15SM FEW020 11/10 A3034 RMK SC1 SLP277
Observed Flight Rules
Sep-24 @ 11:00 UTC (32 minutes ago) Visual Flight Rules
Wind Visibility Clouds
100° at 11 knots
 Gusting to 17 knots
15 miles
  • Few at 2,000' AGL
Temperatures Readings
Current 11°C / 52°F
Dewpoint 10°C / 50°F
Humidity 94%
Altimeter 30.34" Hg
Pressure 1027.7 hPa
Elevation 98
METAR CYSN 241100Z 10011G17KT 15SM FEW020 11/10 A3034 RMK SC1 SLP277
Observed Flight Rules
Sep-24 @ 11:00 UTC
(32 minutes ago)
VFR
Wind Visibility
100° at 11 knots
 Gusting to 17 knots
15 miles
Clouds
  • Few at 2,000' AGL
Temperature Dewpoint
11°C / 52°F 10°C / 50°F
Humidity Altimeter Pressure
94% 30.34" Hg 1027.7 hPa